createdAt,value
2022-10-18T00:00:07.710Z,100956.69
2022-10-18T00:02:39.799Z,100945.84
2022-10-18T00:05:09.100Z,100943.56
2022-10-18T00:07:37.774Z,100954.16
2022-10-18T00:10:07.532Z,100973.94
2022-10-18T00:12:36.980Z,100981.41
2022-10-18T00:15:09.170Z,100975.25
2022-10-18T00:17:38.771Z,100977.94
2022-10-18T00:20:08.489Z,100914.63
2022-10-18T00:22:38.642Z,100865.13
2022-10-18T00:25:08.907Z,100874.56
2022-10-18T00:27:38.152Z,100860.44
2022-10-18T00:30:09.367Z,100805.44
2022-10-18T00:32:38.847Z,100805.38
2022-10-18T00:35:09.340Z,100827.44
2022-10-18T00:37:38.193Z,100846.75
2022-10-18T00:40:07.852Z,100823.34
2022-10-18T00:42:38.332Z,100788.28
2022-10-18T00:45:21.302Z,100760.94
2022-10-18T00:47:59.248Z,100726.16
2022-10-18T00:50:31.450Z,100720.34
2022-10-18T00:53:03.925Z,100707.38
2022-10-18T00:55:34.718Z,100707.91
2022-10-18T00:58:04.711Z,100710.09
2022-10-18T01:00:39.012Z,100700.22
2022-10-18T01:03:09.354Z,100740.72
2022-10-18T01:05:41.802Z,100723.31
2022-10-18T01:08:35.024Z,100727.00
2022-10-18T01:11:15.303Z,100747.94
2022-10-18T01:14:02.643Z,100762.88
2022-10-18T01:16:40.994Z,100734.84
2022-10-18T01:19:26.780Z,100725.72
2022-10-18T01:22:00.656Z,100729.34
2022-10-18T01:24:47.579Z,100721.81
2022-10-18T01:27:43.074Z,100714.16
2022-10-18T01:30:51.189Z,100698.09
2022-10-18T01:33:39.203Z,100677.19
2022-10-18T01:36:15.002Z,100676.00
2022-10-18T01:38:45.356Z,100660.72
2022-10-18T01:41:15.949Z,100646.91
2022-10-18T01:43:48.014Z,100637.53
2022-10-18T01:46:20.946Z,100640.66
2022-10-18T01:48:53.030Z,100624.53
2022-10-18T01:51:24.367Z,100621.19
2022-10-18T01:53:53.136Z,100611.34
2022-10-18T01:56:32.130Z,100600.88
2022-10-18T01:59:29.776Z,100584.19
2022-10-18T02:02:07.934Z,100577.53
2022-10-18T02:04:44.162Z,100562.09
2022-10-18T02:07:25.152Z,100562.09
2022-10-18T02:10:02.716Z,100549.81
2022-10-18T02:12:35.170Z,100535.81
2022-10-18T02:15:06.327Z,100542.31
2022-10-18T02:17:34.830Z,100522.78
2022-10-18T02:20:08.078Z,100515.28
2022-10-18T02:22:39.575Z,100514.16
2022-10-18T02:25:12.561Z,100511.47
2022-10-18T02:27:41.694Z,100509.53
2022-10-18T02:30:12.049Z,100503.31
2022-10-18T02:32:47.339Z,100499.06
2022-10-18T02:35:22.349Z,100499.34
2022-10-18T02:37:53.952Z,100499.63
2022-10-18T02:40:22.800Z,100480.06
2022-10-18T02:42:57.020Z,100472.00
2022-10-18T02:45:27.535Z,100476.41
2022-10-18T02:47:56.333Z,100473.31
2022-10-18T02:50:26.503Z,100458.75
2022-10-18T02:52:55.098Z,100456.47
2022-10-18T02:55:23.765Z,100469.94
2022-10-18T02:57:52.353Z,100488.03
2022-10-18T03:00:21.029Z,100494.53
2022-10-18T03:02:50.738Z,100477.69
2022-10-18T03:05:19.353Z,100473.03
2022-10-18T03:07:50.179Z,100470.47
2022-10-18T03:10:21.905Z,100465.38
2022-10-18T03:12:53.889Z,100458.88
2022-10-18T03:15:25.926Z,100446.13
2022-10-18T03:17:57.546Z,100439.66
2022-10-18T03:20:30.125Z,100435.41
2022-10-18T03:23:21.241Z,100424.06
2022-10-18T03:25:54.086Z,100417.56
2022-10-18T03:28:26.252Z,100407.25
2022-10-18T03:31:04.207Z,100410.50
2022-10-18T03:33:39.180Z,100401.72
2022-10-18T03:36:14.119Z,100397.59
2022-10-18T03:38:50.024Z,100400.16
2022-10-18T03:41:25.665Z,100387.28
2022-10-18T03:43:57.325Z,100399.56
2022-10-18T03:46:29.023Z,100400.84
2022-10-18T03:49:01.946Z,100392.38
2022-10-18T03:51:38.708Z,100394.34
2022-10-18T03:54:14.621Z,100391.50
2022-10-18T03:56:49.685Z,100394.78
2022-10-18T03:59:22.509Z,100389.50
2022-10-18T04:01:53.669Z,100383.72
2022-10-18T04:04:30.065Z,100390.81
2022-10-18T04:07:01.904Z,100390.94
2022-10-18T04:09:35.406Z,100391.38
2022-10-18T04:12:07.281Z,100386.41
2022-10-18T04:14:41.529Z,100386.09
2022-10-18T04:17:13.526Z,100381.72
2022-10-18T04:19:47.648Z,100371.97
2022-10-18T04:22:22.525Z,100383.28
2022-10-18T04:24:54.338Z,100373.97
2022-10-18T04:27:26.262Z,100375.94
2022-10-18T04:29:55.350Z,100382.75
2022-10-18T04:32:24.548Z,100402.53
2022-10-18T04:34:54.577Z,100395.88
2022-10-18T04:37:25.117Z,100399.81
2022-10-18T04:39:55.683Z,100397.06
2022-10-18T04:42:24.964Z,100403.94
2022-10-18T04:44:53.882Z,100404.84
2022-10-18T04:47:25.543Z,100392.41
2022-10-18T04:49:54.571Z,100402.81
2022-10-18T04:52:23.539Z,100412.00
2022-10-18T04:54:52.480Z,100411.09
2022-10-18T04:57:22.900Z,100405.88
2022-10-18T04:59:52.486Z,100406.94
2022-10-18T05:02:21.305Z,100420.53
2022-10-18T05:04:50.322Z,100408.50
2022-10-18T05:07:19.161Z,100422.03
2022-10-18T05:09:48.086Z,100418.03
2022-10-18T05:12:16.810Z,100411.84
2022-10-18T05:14:47.297Z,100410.78
2022-10-18T05:17:16.369Z,100410.09
2022-10-18T05:19:47.789Z,100419.25
2022-10-18T05:22:19.229Z,100414.91
2022-10-18T05:24:48.179Z,100427.09
2022-10-18T05:27:17.371Z,100435.56
2022-10-18T05:29:47.901Z,100434.56
2022-10-18T05:32:17.028Z,100431.53
2022-10-18T05:34:45.822Z,100441.72
2022-10-18T05:37:14.791Z,100437.16
2022-10-18T05:39:44.680Z,100438.22
2022-10-18T05:42:13.827Z,100441.06
2022-10-18T05:44:42.560Z,100454.41
2022-10-18T05:47:12.833Z,100456.09
2022-10-18T05:49:41.617Z,100456.09
2022-10-18T05:52:10.417Z,100452.94
2022-10-18T05:54:39.178Z,100467.13
2022-10-18T05:57:07.978Z,100458.50
2022-10-18T05:59:36.740Z,100466.59
2022-10-18T06:02:05.409Z,100473.53
2022-10-18T06:04:36.226Z,100469.22
2022-10-18T06:07:05.079Z,100467.34
2022-10-18T06:09:33.669Z,100485.88
2022-10-18T06:12:02.432Z,100486.88
2022-10-18T06:14:31.032Z,100486.34
2022-10-18T06:16:59.716Z,100493.38
2022-10-18T06:19:28.292Z,100495.31
2022-10-18T06:21:58.390Z,100502.56
2022-10-18T06:24:27.587Z,100513.22
2022-10-18T06:26:56.362Z,100499.00
2022-10-18T06:29:25.103Z,100506.28
2022-10-18T06:31:53.941Z,100511.13
2022-10-18T06:34:22.878Z,100527.66
2022-10-18T06:36:55.003Z,100527.66
2022-10-18T06:39:28.238Z,100536.59
2022-10-18T06:41:56.991Z,100545.63
2022-10-18T06:44:26.285Z,100545.22
2022-10-18T06:46:55.043Z,100552.47
2022-10-18T06:49:23.611Z,100562.56
2022-10-18T06:51:52.327Z,100567.31
2022-10-18T06:54:21.265Z,100580.13
2022-10-18T06:56:51.379Z,100576.06
2022-10-18T06:59:20.191Z,100580.13
2022-10-18T07:01:48.884Z,100592.13
2022-10-18T07:04:17.519Z,100586.22
2022-10-18T07:06:46.248Z,100598.84
2022-10-18T07:09:14.989Z,100595.28
2022-10-18T07:11:43.712Z,100601.72
2022-10-18T07:14:16.287Z,100599.72
2022-10-18T07:16:45.348Z,100614.19
2022-10-18T07:19:15.124Z,100603.09
2022-10-18T07:21:43.923Z,100614.44
2022-10-18T07:24:12.632Z,100619.84
2022-10-18T07:26:42.660Z,100625.25
2022-10-18T07:29:14.548Z,100619.53
2022-10-18T07:31:43.222Z,100619.38
2022-10-18T07:34:14.637Z,100618.69
2022-10-18T07:36:43.555Z,100616.38
2022-10-18T07:39:12.432Z,100626.47
2022-10-18T07:41:41.211Z,100625.47
2022-10-18T07:44:09.998Z,100622.09
2022-10-18T07:46:40.675Z,100622.59
2022-10-18T07:49:09.348Z,100637.66
2022-10-18T07:51:38.060Z,100624.53
2022-10-18T07:54:06.888Z,100642.44
2022-10-18T07:56:35.703Z,100646.00
2022-10-18T07:59:04.382Z,100650.38
2022-10-18T08:01:33.147Z,100656.66
2022-10-18T08:04:07.810Z,100649.53
2022-10-18T08:06:37.969Z,100651.91
2022-10-18T08:09:07.263Z,100661.75
2022-10-18T08:11:35.940Z,100668.81
2022-10-18T08:14:04.654Z,100669.66
2022-10-18T08:19:08.472Z,100671.16
2022-10-18T08:21:37.223Z,100675.16
2022-10-18T08:24:06.721Z,100685.94
2022-10-18T08:26:35.751Z,100678.03
2022-10-18T08:29:17.923Z,100680.72
2022-10-18T08:31:51.636Z,100678.88
2022-10-18T08:34:24.107Z,100687.97
2022-10-18T08:36:52.945Z,100689.34
2022-10-18T08:39:21.914Z,100683.25
2022-10-18T08:42:10.404Z,100677.84
2022-10-18T08:44:46.109Z,100682.59
2022-10-18T08:47:18.525Z,100684.59
2022-10-18T08:49:52.011Z,100689.16
2022-10-18T08:52:34.530Z,100694.81
2022-10-18T08:55:05.500Z,100700.41
2022-10-18T08:57:34.766Z,100693.97
2022-10-18T09:00:09.582Z,100701.09
2022-10-18T09:02:51.557Z,100693.00
2022-10-18T09:05:29.750Z,100691.59
2022-10-18T09:08:40.040Z,100686.34
2022-10-18T09:11:20.095Z,100695.97
2022-10-18T09:14:04.509Z,100697.13
2022-10-18T09:16:41.292Z,100696.28
2022-10-18T09:19:18.963Z,100698.53
2022-10-18T09:21:54.060Z,100697.25
2022-10-18T09:24:29.176Z,100701.50
2022-10-18T09:27:02.922Z,100702.97
2022-10-18T09:29:44.844Z,100700.31
2022-10-18T09:32:24.692Z,100695.19
2022-10-18T09:34:59.405Z,100699.00
2022-10-18T09:37:33.878Z,100698.44
2022-10-18T09:40:16.582Z,100699.41
2022-10-18T09:42:54.816Z,100699.16
2022-10-18T09:45:29.205Z,100699.25
2022-10-18T09:48:08.711Z,100704.97
2022-10-18T09:50:42.703Z,100705.50
2022-10-18T09:53:23.132Z,100694.38
2022-10-18T09:56:02.153Z,100696.41
2022-10-18T09:58:43.003Z,100687.41
2022-10-18T10:01:14.585Z,100694.84
2022-10-18T10:03:43.986Z,100691.53
2022-10-18T10:06:25.645Z,100695.63
2022-10-18T10:09:06.858Z,100698.00
2022-10-18T10:11:38.788Z,100701.22
2022-10-18T10:14:23.792Z,100705.09
2022-10-18T10:16:55.553Z,100695.75
2022-10-18T10:19:33.753Z,100702.66
2022-10-18T10:22:07.246Z,100705.72
2022-10-18T10:24:53.050Z,100706.56
2022-10-18T10:27:26.494Z,100701.47
2022-10-18T10:30:01.561Z,100706.25
2022-10-18T10:32:46.383Z,100708.44
2022-10-18T10:35:34.024Z,100714.16
2022-10-18T10:38:25.324Z,100698.63
2022-10-18T10:40:55.523Z,100695.53
2022-10-18T10:43:42.250Z,100693.84
2022-10-18T10:46:13.507Z,100714.06
2022-10-18T10:48:48.611Z,100718.09
2022-10-18T10:51:20.667Z,100718.53
2022-10-18T10:53:52.945Z,100728.78
2022-10-18T10:56:29.238Z,100732.34
2022-10-18T10:59:01.843Z,100738.91
2022-10-18T11:01:33.480Z,100740.91
2022-10-18T11:04:04.577Z,100743.22
2022-10-18T11:06:53.665Z,100740.53
2022-10-18T11:09:32.536Z,100749.78
2022-10-18T11:12:18.153Z,100745.66
2022-10-18T11:14:54.305Z,100752.13
2022-10-18T11:17:33.263Z,100740.94
2022-10-18T11:20:12.009Z,100754.47
2022-10-18T11:22:45.476Z,100749.66
2022-10-18T11:25:18.287Z,100754.22
2022-10-18T11:27:56.629Z,100745.28
2022-10-18T11:30:39.169Z,100750.50
2022-10-18T11:33:28.699Z,100743.97
2022-10-18T11:36:12.098Z,100750.22
2022-10-18T11:38:50.240Z,100750.50
2022-10-18T11:41:32.530Z,100743.13
2022-10-18T11:44:04.790Z,100747.38
2022-10-18T11:46:55.585Z,100753.47
2022-10-18T11:49:53.267Z,100753.47
2022-10-18T11:52:30.069Z,100760.41
2022-10-18T11:55:12.289Z,100758.16
2022-10-18T11:57:56.287Z,100766.75
2022-10-18T12:00:39.559Z,100761.50
2022-10-18T12:03:35.212Z,100758.25
2022-10-18T12:06:07.968Z,100753.16
2022-10-18T12:08:41.512Z,100764.25
2022-10-18T12:11:16.039Z,100764.53
2022-10-18T12:13:50.151Z,100763.13
2022-10-18T12:16:45.450Z,100766.25
2022-10-18T12:19:23.486Z,100771.38
2022-10-18T12:21:58.348Z,100771.66
2022-10-18T12:24:30.128Z,100770.84
2022-10-18T12:27:02.861Z,100760.34
2022-10-18T12:29:36.889Z,100772.28
2022-10-18T12:32:10.780Z,100786.19
2022-10-18T12:34:45.630Z,100777.09
2022-10-18T12:37:48.902Z,100789.47
2022-10-18T12:40:24.869Z,100781.66
2022-10-18T12:42:55.055Z,100773.31
2022-10-18T12:45:30.563Z,100777.13
2022-10-18T12:48:03.984Z,100776.53
2022-10-18T12:50:36.294Z,100782.53
2022-10-18T12:53:16.491Z,100773.97
2022-10-18T12:55:46.865Z,100780.97
2022-10-18T12:58:27.809Z,100775.41
2022-10-18T13:01:02.623Z,100786.91
2022-10-18T13:03:41.467Z,100777.97
2022-10-18T13:06:10.271Z,100783.06
2022-10-18T13:08:42.290Z,100787.31
2022-10-18T13:11:31.349Z,100780.25
2022-10-18T13:14:18.624Z,100781.38
2022-10-18T13:16:50.731Z,100789.59
2022-10-18T13:19:27.080Z,100776.25
2022-10-18T13:22:12.667Z,100787.03
2022-10-18T13:24:46.887Z,100785.63
2022-10-18T13:27:42.208Z,100778.53
2022-10-18T13:30:34.653Z,100773.13
2022-10-18T13:33:22.424Z,100774.00
2022-10-18T13:35:58.268Z,100774.56
2022-10-18T13:39:03.919Z,100766.06
2022-10-18T13:41:35.555Z,100765.22
2022-10-18T13:44:30.708Z,100768.88
2022-10-18T13:47:35.558Z,100769.47
2022-10-18T13:50:28.446Z,100764.06
2022-10-18T13:53:36.112Z,100770.16
2022-10-18T13:56:41.327Z,100775.81
2022-10-18T13:59:29.171Z,100777.94
2022-10-18T14:02:30.798Z,100777.41
2022-10-18T14:05:25.746Z,100783.88
2022-10-18T14:08:01.307Z,100782.31
2022-10-18T14:11:01.277Z,100782.59
2022-10-18T14:13:38.205Z,100780.06
2022-10-18T14:16:12.265Z,100783.91
2022-10-18T14:18:44.240Z,100788.13
2022-10-18T14:21:21.991Z,100791.78
2022-10-18T14:23:52.417Z,100785.84
2022-10-18T14:26:23.093Z,100794.03
2022-10-18T14:29:06.192Z,100789.66
2022-10-18T14:31:36.098Z,100790.19
2022-10-18T14:34:05.283Z,100787.78
2022-10-18T14:36:39.201Z,100791.47
2022-10-18T14:39:16.898Z,100789.19
2022-10-18T14:41:52.368Z,100786.91
2022-10-18T14:44:23.563Z,100786.19
2022-10-18T14:46:53.979Z,100794.25
2022-10-18T14:49:22.808Z,100788.31
2022-10-18T14:51:53.382Z,100782.34
2022-10-18T14:54:29.048Z,100782.63
2022-10-18T14:57:02.876Z,100782.63
2022-10-18T14:59:32.302Z,100782.91
2022-10-18T15:02:05.222Z,100778.00
2022-10-18T15:04:34.105Z,100790.50
2022-10-18T15:07:04.775Z,100788.53
2022-10-18T15:09:35.819Z,100792.59
2022-10-18T15:12:07.339Z,100786.25
2022-10-18T15:14:37.110Z,100774.75
2022-10-18T15:17:17.155Z,100783.09
2022-10-18T15:19:59.326Z,100785.78
2022-10-18T15:22:32.671Z,100785.91
2022-10-18T15:25:13.021Z,100790.69
2022-10-18T15:27:46.835Z,100789.41
2022-10-18T15:30:24.435Z,100792.38
2022-10-18T15:32:55.039Z,100789.97
2022-10-18T15:35:28.709Z,100784.69
2022-10-18T15:37:58.930Z,100791.06
2022-10-18T15:40:39.261Z,100786.66
2022-10-18T15:43:36.520Z,100786.94
2022-10-18T15:46:07.420Z,100791.47
2022-10-18T15:48:37.595Z,100793.16
2022-10-18T15:51:07.622Z,100790.75
2022-10-18T15:53:44.019Z,100790.88
2022-10-18T15:56:28.993Z,100798.25
2022-10-18T15:59:01.022Z,100790.28
2022-10-18T16:01:36.102Z,100792.13
2022-10-18T16:04:09.737Z,100788.56
2022-10-18T16:06:38.919Z,100791.13
2022-10-18T16:09:07.657Z,100785.50
2022-10-18T16:11:36.318Z,100787.34
2022-10-18T16:14:06.448Z,100777.31
2022-10-18T16:16:35.312Z,100782.69
2022-10-18T16:19:04.888Z,100771.91
2022-10-18T16:21:36.124Z,100775.34
2022-10-18T16:24:06.077Z,100777.88
2022-10-18T16:26:35.495Z,100768.00
2022-10-18T16:29:06.778Z,100771.38
2022-10-18T16:31:36.341Z,100764.19
2022-10-18T16:34:04.935Z,100762.63
2022-10-18T16:36:35.330Z,100759.47
2022-10-18T16:39:08.303Z,100758.16
2022-10-18T16:41:37.062Z,100756.31
2022-10-18T16:44:07.327Z,100753.78
2022-10-18T16:46:36.925Z,100747.41
2022-10-18T16:49:06.512Z,100750.94
2022-10-18T16:51:35.513Z,100748.25
2022-10-18T16:54:04.196Z,100748.97
2022-10-18T16:56:33.933Z,100748.00
2022-10-18T16:59:02.665Z,100753.38
2022-10-18T17:01:32.854Z,100762.16
2022-10-18T17:04:01.586Z,100761.56
2022-10-18T17:06:31.973Z,100745.72
2022-10-18T17:09:01.268Z,100741.28
2022-10-18T17:11:30.263Z,100738.16
2022-10-18T17:13:59.012Z,100732.22
2022-10-18T17:19:07.373Z,100743.03
2022-10-18T17:21:36.499Z,100731.81
2022-10-18T17:24:06.431Z,100738.47
2022-10-18T17:26:35.505Z,100734.59
2022-10-18T17:29:07.167Z,100734.84
2022-10-18T17:31:35.996Z,100725.34
2022-10-18T17:34:06.250Z,100732.13
2022-10-18T17:36:36.020Z,100724.69
2022-10-18T17:39:05.771Z,100732.28
2022-10-18T17:41:34.409Z,100737.34
2022-10-18T17:44:04.473Z,100737.72
2022-10-18T17:46:33.209Z,100741.63
2022-10-18T17:49:01.891Z,100733.56
2022-10-18T17:51:31.898Z,100726.63
2022-10-18T17:54:00.541Z,100728.75
2022-10-18T17:56:33.510Z,100720.06
2022-10-18T17:59:02.326Z,100715.16
2022-10-18T18:01:30.931Z,100715.06
2022-10-18T18:04:01.551Z,100709.41
2022-10-18T18:06:34.262Z,100711.84
2022-10-18T18:09:07.119Z,100698.28
2022-10-18T18:11:36.605Z,100707.53
2022-10-18T18:14:11.100Z,100696.06
2022-10-18T18:16:42.060Z,100706.69
2022-10-18T18:19:11.471Z,100694.94
2022-10-18T18:21:42.543Z,100694.94
2022-10-18T18:24:11.441Z,100687.72
2022-10-18T18:26:40.781Z,100687.72
2022-10-18T18:29:09.600Z,100685.19
2022-10-18T18:31:40.253Z,100684.19
2022-10-18T18:34:14.312Z,100686.88
2022-10-18T18:36:45.070Z,100680.56
2022-10-18T18:39:21.269Z,100677.88
2022-10-18T18:41:51.503Z,100678.56
2022-10-18T18:44:21.290Z,100677.88
2022-10-18T18:46:50.395Z,100677.88
2022-10-18T18:49:19.008Z,100679.69
2022-10-18T18:51:49.112Z,100677.88
2022-10-18T18:54:17.906Z,100676.88
2022-10-18T18:56:47.080Z,100671.50
2022-10-18T18:59:16.285Z,100672.50
2022-10-18T19:01:45.746Z,100656.50
2022-10-18T19:04:14.627Z,100665.41
2022-10-18T19:06:45.123Z,100661.03
2022-10-18T19:09:20.772Z,100666.53
2022-10-18T19:11:50.795Z,100652.25
2022-10-18T19:14:19.469Z,100654.94
2022-10-18T19:16:48.769Z,100651.53
2022-10-18T19:19:19.363Z,100653.22
2022-10-18T19:21:50.151Z,100642.63
2022-10-18T19:24:21.191Z,100645.44
2022-10-18T19:26:51.132Z,100636.91
2022-10-18T19:29:21.839Z,100637.19
2022-10-18T19:31:51.930Z,100635.63
2022-10-18T19:34:22.549Z,100628.78
2022-10-18T19:36:51.672Z,100631.63
2022-10-18T19:39:23.552Z,100634.44
2022-10-18T19:41:55.358Z,100631.16
2022-10-18T19:44:27.628Z,100628.50
2022-10-18T19:46:56.749Z,100627.38
2022-10-18T19:49:25.309Z,100630.19
2022-10-18T19:51:54.228Z,100625.06
2022-10-18T19:54:24.460Z,100622.25
2022-10-18T19:56:53.018Z,100621.41
2022-10-18T19:59:22.828Z,100630.44
2022-10-18T20:01:51.803Z,100622.41
2022-10-18T20:04:20.341Z,100625.06
2022-10-18T20:06:49.102Z,100622.50
2022-10-18T20:09:20.428Z,100618.88
2022-10-18T20:11:51.053Z,100625.91
2022-10-18T20:14:20.324Z,100616.03
2022-10-18T20:16:48.838Z,100615.91
2022-10-18T20:19:17.566Z,100610.53
2022-10-18T20:21:46.119Z,100600.66
2022-10-18T20:24:14.684Z,100597.97
2022-10-18T20:26:43.918Z,100601.50
2022-10-18T20:29:14.237Z,100594.28
2022-10-18T20:31:42.882Z,100599.41
2022-10-18T20:34:13.411Z,100599.41
2022-10-18T20:36:43.106Z,100595.72
2022-10-18T20:39:11.816Z,100586.84
2022-10-18T20:41:41.915Z,100586.00
2022-10-18T20:44:16.943Z,100583.31
2022-10-18T20:46:45.665Z,100574.53
2022-10-18T20:49:16.519Z,100570.84
2022-10-18T20:51:45.560Z,100574.53
2022-10-18T20:54:14.296Z,100565.63
2022-10-18T20:56:43.219Z,100567.44
2022-10-18T20:59:12.397Z,100557.69
2022-10-18T21:01:42.547Z,100564.75
2022-10-18T21:04:12.295Z,100565.88
2022-10-18T21:06:42.711Z,100564.06
2022-10-18T21:09:14.421Z,100552.44
2022-10-18T21:11:45.063Z,100551.03
2022-10-18T21:14:15.614Z,100534.78
2022-10-18T21:16:46.567Z,100533.34
2022-10-18T21:19:16.683Z,100536.03
2022-10-18T21:21:47.548Z,100525.44
2022-10-18T21:24:16.192Z,100528.97
2022-10-18T21:26:45.347Z,100522.63
2022-10-18T21:29:18.098Z,100509.19
2022-10-18T21:31:53.719Z,100519.34
2022-10-18T21:34:22.750Z,100514.25
2022-10-18T21:36:51.260Z,100513.13
2022-10-18T21:39:21.984Z,100506.06
2022-10-18T21:41:51.380Z,100498.97
2022-10-18T21:44:20.325Z,100500.94
2022-10-18T21:46:50.988Z,100501.81
2022-10-18T21:49:19.831Z,100495.34
2022-10-18T21:51:48.386Z,100493.63
2022-10-18T21:54:17.783Z,100495.47
2022-10-18T21:56:46.791Z,100490.38
2022-10-18T21:59:15.827Z,100496.44
2022-10-18T22:01:45.879Z,100486.56
2022-10-18T22:04:22.042Z,100485.44
2022-10-18T22:06:51.445Z,100479.91
2022-10-18T22:09:21.318Z,100476.53
2022-10-18T22:11:51.999Z,100469.91
2022-10-18T22:14:21.300Z,100473.00
2022-10-18T22:16:50.056Z,100468.34
2022-10-18T22:19:20.685Z,100454.66
2022-10-18T22:21:49.362Z,100450.00
2022-10-18T22:24:18.142Z,100453.28
2022-10-18T22:26:47.627Z,100448.63
2022-10-18T22:29:18.234Z,100454.00
2022-10-18T22:31:49.228Z,100453.28
2022-10-18T22:34:18.481Z,100449.59
2022-10-18T22:36:48.511Z,100453.00
2022-10-18T22:39:17.696Z,100452.28
2022-10-18T22:41:46.701Z,100455.38
2022-10-18T22:44:16.369Z,100444.06
2022-10-18T22:46:44.993Z,100437.44
2022-10-18T22:49:14.121Z,100437.03
2022-10-18T22:51:42.893Z,100431.22
2022-10-18T22:54:13.041Z,100419.09
2022-10-18T22:56:41.749Z,100423.34
2022-10-18T22:59:10.444Z,100421.13
2022-10-18T23:01:39.446Z,100416.59
2022-10-18T23:04:08.110Z,100413.19
2022-10-18T23:06:38.078Z,100413.06
2022-10-18T23:09:09.855Z,100400.75
2022-10-18T23:11:40.028Z,100409.22
2022-10-18T23:14:08.872Z,100405.22
2022-10-18T23:16:37.609Z,100404.53
2022-10-18T23:19:06.627Z,100393.78
2022-10-18T23:21:35.680Z,100395.75
2022-10-18T23:24:04.689Z,100398.28
2022-10-18T23:26:33.573Z,100391.34
2022-10-18T23:29:03.746Z,100389.94
2022-10-18T23:31:34.081Z,100392.75
2022-10-18T23:34:05.268Z,100395.59
2022-10-18T23:36:34.870Z,100391.13
2022-10-18T23:39:04.067Z,100382.47
2022-10-18T23:41:32.826Z,100384.72
2022-10-18T23:44:02.944Z,100389.78
2022-10-18T23:46:31.574Z,100381.91
2022-10-18T23:49:00.205Z,100381.31
2022-10-18T23:51:29.028Z,100376.63
2022-10-18T23:53:57.654Z,100376.34
2022-10-18T23:56:26.291Z,100384.53
2022-10-18T23:58:54.901Z,100379.56
